Terminal Aerodrome Forecast
Issued by NWS Charleston, WV

Current Version | Previous Version | Graphics & Text | Print | Product List | Glossary On
Versions: 1 2 3 4 5 6 7 8 9 10 11 12 13 14 15 16 17 18 19 20 21 22 23 24
000
FTUS41 KRLX 192000 AAA
TAFHTS
TAF AMD
KHTS 192035Z 1921/2018 10005KT P6SM VCSH OVC060
     FM192300 13012G21KT 6SM SHRA BR OVC030
     FM200000 13011G20KT 6SM SHRA OVC040
     FM200500 20010G17KT P6SM OVC040
     FM201100 19009KT 6SM BR BKN250
     FM201600 21011G17KT P6SM VCTS BKN040CB=

USA.gov is the U.S. government's official web portal to all federal, state and local government web resources and services.